Time;durP1;ratioP1;P1;durP2;ratioP2;P2;SDS_P1;SDS_P2;PMS_P1;PMS_P2;Temp;Humidity;BMP_temperature;BMP_pressure;BME280_temperature;BME280_humidity;BME280_pressure;Samples;Min_cycle;Max_cycle;Signal;HPM_P1;HPM_P2
2023/03/05 00:02:44;;;;;;;11.88;2.70;;;;;;;3.81;100.00;102327.94;10417782;28;20457;-69
2023/03/05 00:07:45;;;;;;;4.97;1.80;;;;;;;3.78;100.00;102319.28;10416515;28;20033;-69
2023/03/05 00:12:46;;;;;;;3.25;2.15;;;;;;;3.58;100.00;102310.94;10413981;28;20409;-70
2023/03/05 00:17:47;;;;;;;2.70;1.73;;;;;;;3.42;100.00;102308.59;10416365;28;20038;-70
2023/03/05 00:22:47;;;;;;;7.93;2.40;;;;;;;3.33;100.00;102306.59;10414260;28;20580;-71
2023/03/05 00:27:48;;;;;;;5.00;2.50;;;;;;;3.25;100.00;102300.97;10423668;28;20033;-71
2023/03/05 00:32:49;;;;;;;3.10;2.08;;;;;;;3.17;100.00;102303.38;10395068;28;20369;-71
2023/03/05 00:37:50;;;;;;;6.10;2.58;;;;;;;3.14;100.00;102298.25;10428444;28;20045;-71
2023/03/05 00:42:50;;;;;;;8.70;3.20;;;;;;;3.23;100.00;102294.88;10427664;28;20548;-71
2023/03/05 00:47:50;;;;;;;7.18;3.35;;;;;;;3.40;100.00;102289.09;10429841;28;20037;-71
2023/03/05 00:52:51;;;;;;;6.95;2.65;;;;;;;3.55;100.00;102281.72;10428876;28;20380;-71
2023/03/05 00:57:52;;;;;;;6.68;2.47;;;;;;;3.64;100.00;102274.81;10426932;28;20041;-71
2023/03/05 01:02:52;;;;;;;7.97;2.03;;;;;;;3.71;100.00;102270.69;10429624;28;20123;-71
2023/03/05 01:07:54;;;;;;;11.60;3.03;;;;;;;3.79;100.00;102262.03;10428024;28;20037;-71
2023/03/05 01:12:55;;;;;;;7.90;2.92;;;;;;;3.85;100.00;102266.91;10426627;28;20060;-71
2023/03/05 01:17:55;;;;;;;9.05;2.72;;;;;;;3.87;100.00;102252.44;10427124;28;20080;-71
2023/03/05 01:22:58;;;;;;;9.55;2.40;;;;;;;3.88;100.00;102243.41;10427052;28;20112;-71
2023/03/05 01:27:58;;;;;;;9.77;2.53;;;;;;;3.93;100.00;102233.19;10427613;28;20095;-71
2023/03/05 01:32:59;;;;;;;6.47;2.83;;;;;;;3.93;100.00;102232.34;10428151;28;20385;-71
2023/03/05 01:37:59;;;;;;;2.80;2.53;;;;;;;3.95;100.00;102227.69;10423622;28;20041;-71
2023/03/05 01:43:12;;;;;;;17.17;3.25;;;;;;;3.96;100.00;102221.38;10420627;28;20113;-71
2023/03/05 01:48:13;;;;;;;14.55;3.20;;;;;;;3.97;100.00;102213.19;10421132;28;20025;-71
2023/03/05 01:53:13;;;;;;;7.75;4.00;;;;;;;3.95;100.00;102200.91;10422022;28;20041;-71
2023/03/05 01:58:14;;;;;;;3.00;2.42;;;;;;;3.96;100.00;102194.59;10420824;28;20036;-71
2023/03/05 02:03:15;;;;;;;16.00;4.35;;;;;;;3.99;100.00;102186.28;10419359;28;20069;-71
2023/03/05 02:08:20;;;;;;;8.77;3.15;;;;;;;4.04;100.00;102176.03;10419734;28;20044;-73
2023/03/05 02:13:30;;;;;;;15.85;2.30;;;;;;;4.04;100.00;102164.47;10421273;28;20060;-71
2023/03/05 02:18:31;;;;;;;11.77;2.22;;;;;;;4.04;100.00;102156.44;10403847;28;20461;-71
2023/03/05 02:23:35;;;;;;;4.30;2.17;;;;;;;4.06;100.00;102151.81;10419199;28;20029;-71
2023/03/05 02:28:38;;;;;;;5.70;2.03;;;;;;;4.12;100.00;102148.63;10419675;28;20126;-71
2023/03/05 02:33:39;;;;;;;8.00;3.47;;;;;;;4.14;100.00;102141.28;10419371;28;20034;-70
2023/03/05 02:38:40;;;;;;;3.20;2.28;;;;;;;4.17;100.00;102143.72;10417997;28;20033;-69
2023/03/05 02:43:41;;;;;;;2.15;1.88;;;;;;;4.18;100.00;102126.69;10417787;28;20429;-69
2023/03/05 02:48:42;;;;;;;5.30;2.78;;;;;;;4.09;100.00;102125.59;10401083;28;20465;-69
2023/03/05 02:53:43;;;;;;;8.20;1.90;;;;;;;3.88;100.00;102117.47;10418353;28;20481;-70
2023/03/05 02:58:43;;;;;;;3.40;1.35;;;;;;;3.72;100.00;102117.00;10418459;28;20170;-70
2023/03/05 03:03:44;;;;;;;10.43;2.28;;;;;;;3.50;100.00;102105.31;10418120;28;20121;-71
2023/03/05 03:08:44;;;;;;;12.70;1.85;;;;;;;3.35;100.00;102111.91;10399811;28;20037;-71
2023/03/05 03:13:45;;;;;;;6.75;1.77;;;;;;;3.22;100.00;102093.28;10416206;28;20095;-71
2023/03/05 03:18:47;;;;;;;8.00;1.98;;;;;;;3.30;100.00;102091.81;10415555;28;20052;-71
2023/03/05 03:23:48;;;;;;;3.75;1.98;;;;;;;3.32;100.00;102071.97;10417457;28;20091;-71
2023/03/05 03:28:48;;;;;;;5.18;1.73;;;;;;;3.49;100.00;102082.19;10417319;28;20056;-71
2023/03/05 03:33:49;;;;;;;7.53;2.55;;;;;;;3.67;100.00;102076.31;10416452;28;20069;-71
2023/03/05 03:38:50;;;;;;;6.43;1.90;;;;;;;3.80;100.00;102084.22;10416295;28;20033;-72
2023/03/05 03:43:51;;;;;;;1.67;1.55;;;;;;;3.83;100.00;102066.09;10415895;28;20029;-71
2023/03/05 03:48:51;;;;;;;3.40;2.17;;;;;;;3.77;100.00;102057.69;10415949;28;20056;-72
2023/03/05 03:53:52;;;;;;;3.40;0.90;;;;;;;3.67;100.00;102053.09;10415086;28;20068;-71
2023/03/05 03:58:52;;;;;;;2.03;1.38;;;;;;;3.42;100.00;102048.84;10399659;28;20431;-72
2023/03/05 04:03:53;;;;;;;0.80;0.80;;;;;;;3.22;100.00;102044.22;10413639;28;20038;-72
2023/03/05 04:08:54;;;;;;;1.45;1.20;;;;;;;3.11;100.00;102041.53;10415197;28;20033;-72
2023/03/05 04:13:54;;;;;;;5.55;1.25;;;;;;;3.00;100.00;102042.41;10416220;28;20136;-72
2023/03/05 04:18:56;;;;;;;1.23;1.00;;;;;;;2.85;100.00;102036.41;10416035;28;20061;-72
2023/03/05 04:23:57;;;;;;;7.15;1.25;;;;;;;2.70;100.00;102026.91;10397254;28;20366;-72
2023/03/05 04:28:57;;;;;;;1.45;1.05;;;;;;;2.59;100.00;102016.19;10414049;28;20223;-72
2023/03/05 04:33:58;;;;;;;3.53;1.20;;;;;;;2.48;100.00;102009.81;10413991;28;20041;-72
2023/03/05 04:38:59;;;;;;;1.48;0.88;;;;;;;2.54;100.00;102017.38;10415158;28;20042;-72
2023/03/05 04:44:00;;;;;;;2.63;1.35;;;;;;;2.74;100.00;102012.31;10415072;28;20030;-72
2023/03/05 04:49:00;;;;;;;4.60;1.10;;;;;;;2.68;100.00;102012.78;10415014;28;20029;-72
2023/03/05 04:54:01;;;;;;;6.70;1.40;;;;;;;2.58;100.00;102006.44;10414945;28;20104;-72
2023/03/05 04:59:01;;;;;;;5.63;1.67;;;;;;;2.43;100.00;101995.97;10414783;28;20108;-72
2023/03/05 05:04:02;;;;;;;2.95;1.42;;;;;;;2.32;100.00;101987.91;10415969;28;20033;-72
2023/03/05 05:09:02;;;;;;;2.53;1.40;;;;;;;2.31;100.00;101978.19;10414624;28;20060;-72
2023/03/05 05:14:03;;;;;;;2.40;1.70;;;;;;;2.29;100.00;101972.09;10418592;28;20060;-72
2023/03/05 05:19:04;;;;;;;1.33;1.33;;;;;;;2.23;100.00;101965.41;10420873;28;20041;-72
2023/03/05 05:24:04;;;;;;;9.80;2.15;;;;;;;2.21;100.00;101963.84;10422011;28;20083;-72
2023/03/05 05:29:05;;;;;;;4.57;1.67;;;;;;;2.18;100.00;101962.25;10421936;28;20057;-72
2023/03/05 05:34:05;;;;;;;6.75;1.67;;;;;;;2.19;100.00;101957.75;10421654;28;20057;-72
2023/03/05 05:39:06;;;;;;;3.80;1.63;;;;;;;2.28;100.00;101952.56;10422032;28;20033;-72
2023/03/05 05:44:06;;;;;;;6.13;1.50;;;;;;;2.46;100.00;101955.63;10403572;28;20116;-72
2023/03/05 05:49:07;;;;;;;3.72;1.13;;;;;;;2.60;100.00;101945.69;10419994;28;20041;-73
2023/03/05 05:54:10;;;;;;;3.70;1.63;;;;;;;2.70;100.00;101944.00;10420379;28;20049;-73
2023/03/05 05:59:11;;;;;;;7.28;2.15;;;;;;;2.80;100.00;101935.09;10403121;28;20037;-73
2023/03/05 06:04:11;;;;;;;9.43;1.48;;;;;;;2.92;100.00;101940.47;10420490;28;20075;-73
2023/03/05 06:09:12;;;;;;;2.92;1.65;;;;;;;3.10;100.00;101955.06;10420383;28;20081;-73
2023/03/05 06:14:13;;;;;;;2.47;1.38;;;;;;;3.20;100.00;101957.84;10420398;28;20127;-71
2023/03/05 06:19:14;;;;;;;4.68;1.25;;;;;;;3.17;100.00;101937.53;10420035;28;20476;-71
2023/03/05 06:24:14;;;;;;;2.50;1.15;;;;;;;3.18;100.00;101935.69;10419194;28;20420;-72
2023/03/05 06:29:15;;;;;;;6.60;1.35;;;;;;;3.23;100.00;101936.19;10421918;28;20033;-72
2023/03/05 06:34:15;;;;;;;1.05;0.70;;;;;;;3.25;100.00;101931.53;10418187;28;20125;-72
2023/03/05 06:39:16;;;;;;;0.90;0.90;;;;;;;3.26;100.00;101930.59;10417357;28;20033;-73
2023/03/05 06:44:16;;;;;;;2.70;1.30;;;;;;;3.32;100.00;101923.84;10419485;28;20485;-73
2023/03/05 06:49:17;;;;;;;1.80;1.30;;;;;;;3.39;100.00;101938.47;10401118;28;20496;-74
2023/03/05 06:54:17;;;;;;;1.65;1.55;;;;;;;3.44;100.00;101931.75;10401582;28;20427;-73
2023/03/05 06:59:18;;;;;;;1.40;1.30;;;;;;;3.47;100.00;101928.81;10417056;28;20129;-73
2023/03/05 07:04:18;;;;;;;3.25;1.58;;;;;;;3.57;100.00;101914.66;10416793;28;20061;-73
2023/03/05 07:09:19;;;;;;;1.00;1.00;;;;;;;3.61;100.00;101916.13;10417076;28;20026;-73
2023/03/05 07:14:19;;;;;;;3.83;1.52;;;;;;;3.63;100.00;101925.72;10416910;28;20122;-74
2023/03/05 07:19:20;;;;;;;7.55;1.70;;;;;;;3.69;100.00;101919.00;10417077;28;20069;-73
2023/03/05 07:24:21;;;;;;;5.10;1.70;;;;;;;3.91;100.00;101915.38;10417372;28;20117;-73
2023/03/05 07:29:23;;;;;;;1.92;1.67;;;;;;;4.09;100.00;101927.25;10399676;28;20037;-73
2023/03/05 07:34:23;;;;;;;2.92;1.17;;;;;;;4.07;100.00;101912.25;10414671;28;20029;-71
2023/03/05 07:39:24;;;;;;;7.05;2.58;;;;;;;4.14;100.00;101918.78;10415390;28;20092;-72
2023/03/05 07:44:24;;;;;;;1.42;1.33;;;;;;;4.32;100.00;101919.91;10416040;28;20033;-71
2023/03/05 07:49:25;;;;;;;6.97;1.88;;;;;;;4.54;100.00;101918.06;10415817;28;20029;-73
2023/03/05 07:54:25;;;;;;;0.90;0.90;;;;;;;5.14;100.00;101919.03;10414746;28;20053;-73
2023/03/05 07:59:26;;;;;;;2.78;1.50;;;;;;;5.60;100.00;101913.00;10415899;28;20108;-73
2023/03/05 08:04:28;;;;;;;4.22;1.73;;;;;;;5.92;100.00;101903.81;10417310;28;20112;-74
2023/03/05 08:09:29;;;;;;;2.90;2.70;;;;;;;6.18;100.00;101909.47;10415436;28;20041;-74
2023/03/05 08:14:29;;;;;;;2.05;1.67;;;;;;;6.53;100.00;101889.16;10415346;28;20063;-73
2023/03/05 08:19:30;;;;;;;5.28;1.60;;;;;;;6.42;100.00;101890.19;10415404;28;20034;-74
2023/03/05 08:24:31;;;;;;;11.20;2.13;;;;;;;6.28;100.00;101885.25;10414484;28;20029;-74
2023/03/05 08:29:32;;;;;;;5.07;1.90;;;;;;;6.31;100.00;101873.34;10415640;28;20063;-74
2023/03/05 08:34:33;;;;;;;10.32;2.05;;;;;;;6.26;100.00;101876.50;10399263;28;20079;-74
2023/03/05 08:39:34;;;;;;;1.60;1.50;;;;;;;5.99;100.00;101872.72;10432815;28;20025;-74
2023/03/05 08:44:35;;;;;;;6.05;1.58;;;;;;;5.80;100.00;101868.16;10416520;28;20466;-74
2023/03/05 08:49:36;;;;;;;5.65;1.92;;;;;;;5.51;100.00;101867.31;10422169;28;20116;-71
2023/03/05 08:54:36;;;;;;;6.40;2.08;;;;;;;5.20;100.00;101870.13;10422671;28;20124;-71
2023/03/05 08:59:37;;;;;;;6.65;1.27;;;;;;;4.67;100.00;101878.44;10422503;28;20125;-72
2023/03/05 09:04:37;;;;;;;5.85;1.70;;;;;;;4.39;100.00;101883.53;10422188;28;20026;-72
2023/03/05 09:09:38;;;;;;;4.13;1.75;;;;;;;4.34;100.00;101882.22;10422160;28;20456;-72
2023/03/05 09:14:39;;;;;;;5.95;1.52;;;;;;;4.41;100.00;101884.25;10421658;28;20161;-72
2023/03/05 09:19:40;;;;;;;1.17;1.17;;;;;;;4.36;100.00;101880.28;10404816;28;20100;-72
2023/03/05 09:24:40;;;;;;;4.47;1.25;;;;;;;4.51;100.00;101873.56;10422752;28;20030;-72
2023/03/05 09:29:41;;;;;;;1.15;1.15;;;;;;;4.87;100.00;101857.88;10422077;28;20029;-71
2023/03/05 09:34:41;;;;;;;2.60;1.20;;;;;;;5.24;100.00;101857.28;10421286;28;20041;-71
2023/03/05 09:39:41;;;;;;;2.05;1.85;;;;;;;5.56;100.00;101857.03;10421660;28;20108;-70
2023/03/05 09:44:50;;;;;;;1.58;1.48;;;;;;;5.78;100.00;101851.34;10420433;28;20148;-70
2023/03/05 09:50:31;;;;;;;3.20;1.17;;;;;;;6.00;100.00;101844.84;10421962;28;20031;-71
2023/03/05 09:55:35;;;;;;;3.13;2.75;;;;;;;6.24;100.00;101841.66;10420806;28;20067;-71
2023/03/05 10:00:44;;;;;;;3.00;1.38;;;;;;;6.60;100.00;101844.50;10419426;28;20026;-72
2023/03/05 10:05:50;;;;;;;0.82;0.82;;;;;;;6.82;100.00;101840.56;10419518;28;20029;-73
2023/03/05 10:10:52;;;;;;;3.65;1.35;;;;;;;7.16;100.00;101846.19;10420526;28;20384;-73
2023/03/05 10:16:07;;;;;;;4.00;2.35;;;;;;;7.93;100.00;101827.66;10418963;28;20045;-73
2023/03/05 10:21:13;;;;;;;7.00;1.40;;;;;;;8.38;100.00;101821.25;10418449;28;20104;-73
2023/03/05 10:26:25;;;;;;;1.27;1.10;;;;;;;8.97;100.00;101805.13;10418539;28;20112;-74
2023/03/05 10:31:49;;;;;;;3.42;1.10;;;;;;;9.47;100.00;101790.66;10418461;28;20449;-74
2023/03/05 10:37:21;;;;;;;2.97;1.88;;;;;;;9.46;100.00;101786.28;10409690;28;20037;-74
2023/03/05 10:42:24;;;;;;;1.85;1.40;;;;;;;9.58;100.00;101781.38;10418658;28;20412;-74
2023/03/05 10:47:29;;;;;;;1.20;1.10;;;;;;;10.35;100.00;101776.38;10419819;28;20029;-75
2023/03/05 10:52:35;;;;;;;1.80;0.88;;;;;;;10.36;100.00;101765.34;10401820;28;20072;-75
2023/03/05 10:57:36;;;;;;;1.05;0.98;;;;;;;10.29;100.00;101758.09;10416798;28;20017;-76
2023/03/05 11:02:57;;;;;;;1.05;0.85;;;;;;;9.88;100.00;101750.91;10417163;28;20033;-76
2023/03/05 11:07:57;;;;;;;1.85;0.85;;;;;;;9.94;100.00;101746.66;10418141;28;20029;-77
2023/03/05 11:12:58;;;;;;;0.80;0.80;;;;;;;9.76;100.00;101734.19;10415736;28;20072;-74
2023/03/05 11:18:14;;;;;;;7.72;1.60;;;;;;;10.23;100.00;101724.41;10418161;28;20356;-76
2023/03/05 11:23:18;;;;;;;3.50;1.02;;;;;;;9.79;100.00;101730.28;10417310;28;20026;-77
2023/03/05 11:28:22;;;;;;;0.98;0.98;;;;;;;9.51;100.00;101721.72;10417839;28;20091;-74
2023/03/05 11:33:22;;;;;;;5.68;1.35;;;;;;;10.12;100.00;101722.94;10416786;28;20033;-75
2023/03/05 11:38:25;;;;;;;1.98;1.08;;;;;;;10.39;100.00;101702.72;10416751;28;20044;-75
2023/03/05 11:43:25;;;;;;;1.80;0.90;;;;;;;10.74;100.00;101702.38;10415867;28;20441;-76
2023/03/05 11:48:29;;;;;;;3.10;1.17;;;;;;;10.53;100.00;101700.28;10415410;28;20120;-76
2023/03/05 11:53:35;;;;;;;1.33;1.20;;;;;;;10.09;100.00;101692.69;10398308;28;20041;-76
2023/03/05 11:59:04;;;;;;;3.17;1.20;;;;;;;9.73;100.00;101685.00;10415279;28;20029;-76
2023/03/05 12:04:07;;;;;;;5.47;1.10;;;;;;;9.36;100.00;101675.59;10415486;28;20069;-76
2023/03/05 12:09:39;;;;;;;1.08;1.08;;;;;;;9.35;100.00;101667.66;10415634;28;20029;-78
2023/03/05 12:14:44;;;;;;;1.15;1.05;;;;;;;9.36;100.00;101658.56;10414004;28;20110;-79
2023/03/05 12:19:57;;;;;;;1.23;1.13;;;;;;;9.43;100.00;101649.56;10414975;28;20030;-77
2023/03/05 12:25:25;;;;;;;3.72;0.95;;;;;;;9.78;100.00;101640.19;10398656;28;20065;-78
2023/03/05 12:30:41;;;;;;;3.47;1.73;;;;;;;10.12;100.00;101633.63;10415210;28;20118;-76
2023/03/05 12:35:41;;;;;;;1.13;0.60;;;;;;;9.93;100.00;101637.59;10414516;28;20043;-75
2023/03/05 12:40:42;;;;;;;1.73;0.88;;;;;;;9.68;100.00;101625.19;10413762;28;20120;-77
2023/03/05 12:45:42;;;;;;;8.32;1.48;;;;;;;9.56;100.00;101605.78;10397053;28;20029;-79
2023/03/05 12:50:43;;;;;;;1.23;0.88;;;;;;;9.37;100.00;101600.75;10415389;28;20040;-79
2023/03/05 12:55:46;;;;;;;0.70;0.70;;;;;;;9.08;100.00;101597.59;10414707;28;20192;-76
2023/03/05 13:00:51;;;;;;;4.75;1.52;;;;;;;8.95;100.00;101582.94;10416093;28;20026;-78
2023/03/05 13:05:53;;;;;;;1.30;1.17;;;;;;;9.13;100.00;101572.78;10414242;28;20085;-79
2023/03/05 13:11:01;;;;;;;1.38;1.25;;;;;;;9.16;100.00;101566.19;10413612;28;20037;-80
2023/03/05 13:16:02;;;;;;;0.70;0.70;;;;;;;8.99;100.00;101563.50;10396625;28;20057;-78
2023/03/05 13:21:04;;;;;;;1.08;1.00;;;;;;;8.79;100.00;101554.91;10395879;28;20064;-80
2023/03/05 13:26:17;;;;;;;0.90;0.90;;;;;;;8.58;100.00;101544.63;10414789;28;20036;-77
2023/03/05 13:31:19;;;;;;;1.02;1.00;;;;;;;8.56;100.00;101527.75;10413199;28;20492;-77
2023/03/05 13:36:21;;;;;;;1.17;0.90;;;;;;;8.49;100.00;101532.16;10401675;28;20037;-75
2023/03/05 13:41:27;;;;;;;2.20;1.17;;;;;;;8.50;100.00;101527.59;10419837;28;20076;-76
2023/03/05 13:46:37;;;;;;;1.20;1.10;;;;;;;8.74;100.00;101513.22;10419940;28;20457;-76
2023/03/05 13:51:44;;;;;;;3.40;1.17;;;;;;;8.82;100.00;101505.97;10421637;28;20049;-77
2023/03/05 13:57:05;;;;;;;0.70;0.70;;;;;;;8.68;100.00;101509.38;10419632;28;20120;-76
2023/03/05 14:02:16;;;;;;;0.70;0.70;;;;;;;8.41;100.00;101502.44;10421654;28;20025;-75
2023/03/05 14:07:25;;;;;;;3.97;1.15;;;;;;;8.26;100.00;101496.81;10420426;28;20071;-76
2023/03/05 14:12:33;;;;;;;0.73;0.70;;;;;;;8.34;100.00;101491.44;10419767;28;20056;-75
2023/03/05 14:17:42;;;;;;;5.30;0.95;;;;;;;8.96;100.00;101490.91;10418760;28;20041;-77
2023/03/05 14:22:44;;;;;;;0.80;0.80;;;;;;;8.76;100.00;101489.59;10419661;28;20037;-78
2023/03/05 14:27:46;;;;;;;0.60;0.60;;;;;;;8.32;100.00;101479.97;10419122;28;20108;-80
2023/03/05 14:32:46;;;;;;;8.52;1.23;;;;;;;8.17;100.00;101478.97;10354804;28;20136;-75
2023/03/05 14:37:48;;;;;;;1.95;1.05;;;;;;;8.05;100.00;101470.34;10418637;28;20037;-75
2023/03/05 14:42:56;;;;;;;2.20;1.13;;;;;;;7.98;100.00;101457.72;10401188;28;20033;-76
2023/03/05 14:47:58;;;;;;;1.25;0.80;;;;;;;7.82;100.00;101447.75;10417230;28;20091;-77
2023/03/05 14:53:03;;;;;;;1.27;1.05;;;;;;;7.74;100.00;101439.63;10418268;28;20041;-76
2023/03/05 14:58:10;;;;;;;1.05;0.75;;;;;;;7.54;100.00;101433.69;10401718;28;20034;-75
2023/03/05 15:03:11;;;;;;;3.85;2.05;;;;;;;7.37;100.00;101422.88;10401454;28;20116;-75
2023/03/05 15:08:13;;;;;;;1.35;1.33;;;;;;;7.27;100.00;101415.94;10417350;28;20041;-78
2023/03/05 15:13:14;;;;;;;1.48;1.33;;;;;;;7.23;100.00;101416.25;10401851;28;20056;-75
2023/03/05 15:18:16;;;;;;;2.00;1.25;;;;;;;7.10;100.00;101404.25;10417631;28;20484;-77
2023/03/05 15:23:16;;;;;;;4.32;1.40;;;;;;;6.90;100.00;101398.28;10416825;28;20041;-74
2023/03/05 15:28:17;;;;;;;2.53;1.42;;;;;;;6.80;100.00;101400.25;10417815;28;20065;-75
2023/03/05 15:33:17;;;;;;;2.60;1.15;;;;;;;6.58;100.00;101390.88;10418780;28;20035;-75
2023/03/05 15:38:18;;;;;;;5.25;1.95;;;;;;;6.55;100.00;101386.66;10416997;28;20048;-76
2023/03/05 15:43:18;;;;;;;4.85;2.05;;;;;;;6.44;100.00;101384.22;10416101;28;20041;-77
2023/03/05 15:48:19;;;;;;;4.38;1.75;;;;;;;6.25;100.00;101380.78;10417211;28;20098;-77
2023/03/05 15:53:21;;;;;;;4.18;1.00;;;;;;;6.18;100.00;101377.00;10416411;28;20033;-77
2023/03/05 15:58:21;;;;;;;1.63;1.30;;;;;;;6.06;100.00;101367.50;10415739;28;20137;-78
2023/03/05 16:03:22;;;;;;;1.90;1.38;;;;;;;5.93;100.00;101367.06;10416082;28;20349;-77
2023/03/05 16:08:22;;;;;;;2.63;1.20;;;;;;;5.95;100.00;101370.44;10414716;28;20041;-77
2023/03/05 16:13:24;;;;;;;2.97;1.17;;;;;;;5.94;100.00;101356.16;10415748;28;20477;-77
2023/03/05 16:18:25;;;;;;;1.98;1.70;;;;;;;5.95;100.00;101344.41;10415622;28;20068;-77
2023/03/05 16:23:25;;;;;;;5.30;2.25;;;;;;;5.90;100.00;101330.53;10414173;28;20033;-77
2023/03/05 16:28:26;;;;;;;2.85;1.08;;;;;;;5.78;100.00;101339.88;10416193;28;20033;-77
2023/03/05 16:33:26;;;;;;;1.80;1.77;;;;;;;5.50;100.00;101339.13;10414947;28;20514;-77
2023/03/05 16:38:27;;;;;;;2.53;1.00;;;;;;;5.13;100.00;101330.19;10414318;28;20029;-76
2023/03/05 16:43:27;;;;;;;7.82;1.20;;;;;;;4.93;100.00;101330.47;10413318;28;20461;-76
2023/03/05 16:48:28;;;;;;;1.67;1.45;;;;;;;4.82;100.00;101329.69;10413917;28;20131;-77
2023/03/05 16:53:29;;;;;;;1.58;1.48;;;;;;;4.73;100.00;101324.38;10382718;28;20029;-76
2023/03/05 16:58:30;;;;;;;8.00;2.22;;;;;;;4.66;100.00;101326.81;10413097;28;20120;-76
2023/03/05 17:03:30;;;;;;;1.40;1.30;;;;;;;4.49;100.00;101322.22;10413532;28;20041;-75
2023/03/05 17:08:39;;;;;;;1.55;1.10;;;;;;;4.19;100.00;101327.69;10400226;28;20034;-74
2023/03/05 17:13:39;;;;;;;5.25;1.40;;;;;;;4.00;100.00;101314.31;10421017;28;20060;-73
2023/03/05 17:18:40;;;;;;;2.20;1.55;;;;;;;3.78;100.00;101306.63;10420560;28;20048;-73
2023/03/05 17:23:41;;;;;;;5.30;1.30;;;;;;;3.67;100.00;101303.13;10404972;28;20136;-73
2023/03/05 17:28:42;;;;;;;1.40;1.30;;;;;;;3.69;100.00;101303.78;10421565;28;20038;-73
2023/03/05 17:33:42;;;;;;;9.23;6.85;;;;;;;3.68;100.00;101302.13;10421512;28;20114;-73
2023/03/05 17:38:43;;;;;;;5.40;4.55;;;;;;;3.68;100.00;101296.75;10420634;28;20041;-73
2023/03/05 17:43:44;;;;;;;2.40;2.25;;;;;;;3.65;100.00;101297.03;10421026;28;20061;-73
2023/03/05 17:48:44;;;;;;;5.93;3.05;;;;;;;3.72;100.00;101297.31;10420738;28;20029;-73
2023/03/05 17:53:46;;;;;;;5.57;2.15;;;;;;;3.73;100.00;101299.00;10421684;28;20113;-73
2023/03/05 17:58:47;;;;;;;2.47;1.98;;;;;;;3.67;100.00;101291.53;10420319;28;20039;-73
2023/03/05 18:03:48;;;;;;;7.50;1.90;;;;;;;3.67;100.00;101295.06;10420801;28;20033;-73
2023/03/05 18:08:49;;;;;;;3.00;2.50;;;;;;;3.65;100.00;101291.69;10420635;28;20056;-73
2023/03/05 18:13:52;;;;;;;1.90;1.63;;;;;;;3.57;100.00;101285.34;10420751;28;20045;-73
2023/03/05 18:18:53;;;;;;;2.25;2.10;;;;;;;3.49;100.00;101281.56;10418355;28;20037;-73
2023/03/05 18:23:53;;;;;;;5.82;2.45;;;;;;;3.36;100.00;101256.06;10418025;28;20025;-73
2023/03/05 18:28:54;;;;;;;1.92;1.83;;;;;;;3.28;100.00;101270.13;10419687;28;20299;-73
2023/03/05 18:33:54;;;;;;;3.20;2.50;;;;;;;3.27;100.00;101265.78;10419634;28;20029;-73
2023/03/05 18:38:55;;;;;;;9.73;2.00;;;;;;;3.28;100.00;101256.75;10420116;28;20481;-73
2023/03/05 18:43:56;;;;;;;3.63;2.50;;;;;;;3.38;100.00;101249.59;10418564;28;20061;-73
2023/03/05 18:48:57;;;;;;;3.58;3.10;;;;;;;3.41;100.00;101243.91;10417281;28;20083;-73
2023/03/05 18:53:57;;;;;;;7.28;3.00;;;;;;;3.41;100.00;101235.88;10418924;28;20095;-73
2023/03/05 18:58:58;;;;;;;6.95;3.08;;;;;;;3.41;100.00;101225.19;10416924;28;20112;-73
2023/03/05 19:03:59;;;;;;;5.13;2.30;;;;;;;3.43;100.00;101222.38;10418667;28;20052;-73
2023/03/05 19:09:04;;;;;;;9.13;3.05;;;;;;;3.43;100.00;101223.22;10417641;28;20037;-73
2023/03/05 19:14:04;;;;;;;3.08;2.88;;;;;;;3.45;100.00;101229.28;10416661;28;20081;-73
2023/03/05 19:19:22;;;;;;;4.05;3.22;;;;;;;3.46;100.00;101209.53;10417852;28;20116;-73
2023/03/05 19:24:24;;;;;;;3.72;3.42;;;;;;;3.45;100.00;101204.34;10415769;28;20064;-73
2023/03/05 19:29:26;;;;;;;11.40;4.13;;;;;;;3.44;100.00;101200.81;10416923;28;20098;-73
2023/03/05 19:34:26;;;;;;;4.53;3.50;;;;;;;3.42;100.00;101201.97;10398545;28;20370;-73
2023/03/05 19:39:27;;;;;;;7.32;4.35;;;;;;;3.31;100.00;101199.44;10417790;28;20116;-73
2023/03/05 19:44:27;;;;;;;7.57;3.30;;;;;;;3.24;100.00;101183.09;10400800;28;20124;-73
2023/03/05 19:49:28;;;;;;;11.00;3.88;;;;;;;3.21;100.00;101181.53;10417188;28;20087;-73
2023/03/05 19:54:28;;;;;;;4.47;3.63;;;;;;;3.18;100.00;101170.28;10414786;28;20037;-73
2023/03/05 19:59:29;;;;;;;8.23;4.38;;;;;;;3.15;100.00;101171.41;10415814;28;20037;-73
2023/03/05 20:04:29;;;;;;;3.97;3.42;;;;;;;3.09;100.00;101161.28;10414796;28;20443;-73
2023/03/05 20:09:30;;;;;;;4.00;3.45;;;;;;;2.95;100.00;101159.03;10398063;28;20033;-74
2023/03/05 20:14:31;;;;;;;7.80;4.68;;;;;;;2.81;100.00;101157.66;10413956;28;20056;-73
2023/03/05 20:19:31;;;;;;;4.43;3.95;;;;;;;2.71;100.00;101152.31;10416965;28;20429;-73
2023/03/05 20:24:32;;;;;;;6.35;4.43;;;;;;;2.72;100.00;101139.78;10415138;28;20029;-73
2023/03/05 20:29:32;;;;;;;4.97;4.13;;;;;;;2.68;100.00;101141.88;10415141;28;20033;-73
2023/03/05 20:34:32;;;;;;;9.27;3.65;;;;;;;2.63;100.00;101137.94;10415850;28;20065;-73
2023/03/05 20:39:33;;;;;;;6.57;4.30;;;;;;;2.75;100.00;101139.50;10414987;28;20087;-74
2023/03/05 20:44:33;;;;;;;6.88;4.05;;;;;;;2.97;100.00;101139.19;10418965;28;20124;-73
2023/03/05 20:49:34;;;;;;;5.55;4.25;;;;;;;3.17;100.00;101142.69;10406090;28;20069;-73
2023/03/05 20:54:35;;;;;;;6.13;4.50;;;;;;;3.17;100.00;101128.47;10423298;28;20060;-73
2023/03/05 20:59:35;;;;;;;3.83;3.42;;;;;;;3.00;100.00;101130.88;10422035;28;20037;-74
2023/03/05 21:04:36;;;;;;;6.75;5.18;;;;;;;2.92;100.00;101127.22;10423127;28;20034;-73
2023/03/05 21:09:36;;;;;;;4.47;3.88;;;;;;;2.86;100.00;101128.63;10422810;28;20087;-73
2023/03/05 21:14:38;;;;;;;5.68;4.68;;;;;;;2.77;100.00;101124.13;10421297;28;20077;-73
2023/03/05 21:19:39;;;;;;;7.70;5.85;;;;;;;2.78;100.00;101120.50;10422466;28;20045;-74
2023/03/05 21:24:54;;;;;;;9.32;5.97;;;;;;;2.83;100.00;101112.03;10422673;28;20480;-73
2023/03/05 21:29:54;;;;;;;8.93;5.45;;;;;;;2.83;100.00;101102.16;10423088;28;20071;-73
2023/03/05 21:34:55;;;;;;;11.63;5.70;;;;;;;2.79;100.00;101090.91;10421723;28;20030;-73
2023/03/05 21:39:55;;;;;;;6.57;4.40;;;;;;;2.74;100.00;101089.66;10420358;28;20029;-74
2023/03/05 21:44:56;;;;;;;12.65;5.60;;;;;;;2.70;100.00;101082.91;10421790;28;20556;-73
2023/03/05 21:49:56;;;;;;;6.43;5.13;;;;;;;2.70;100.00;101082.91;10421921;28;20034;-75
2023/03/05 21:54:57;;;;;;;12.40;6.13;;;;;;;2.73;100.00;101074.59;10418776;28;20033;-75
2023/03/05 21:59:58;;;;;;;8.98;5.40;;;;;;;2.76;100.00;101069.81;10437026;28;20067;-74
2023/03/05 22:04:58;;;;;;;14.85;5.13;;;;;;;2.82;100.00;101067.56;10421655;28;20472;-75
2023/03/05 22:09:59;;;;;;;9.68;6.00;;;;;;;2.89;100.00;101060.66;10418644;28;20037;-75
2023/03/05 22:14:59;;;;;;;6.07;4.43;;;;;;;2.99;100.00;101058.78;10421857;28;20461;-75
2023/03/05 22:19:59;;;;;;;10.00;4.68;;;;;;;3.10;100.00;101050.59;10418623;28;20052;-74
2023/03/05 22:25:00;;;;;;;6.43;4.25;;;;;;;3.21;100.00;101046.91;10419951;28;20033;-72
2023/03/05 22:30:00;;;;;;;4.25;3.58;;;;;;;3.19;100.00;101027.47;10419643;28;20034;-71
2023/03/05 22:35:01;;;;;;;5.45;3.42;;;;;;;3.20;100.00;101023.81;10401177;28;20457;-73
2023/03/05 22:40:02;;;;;;;5.57;2.83;;;;;;;3.10;100.00;101010.47;10402083;28;20049;-73
2023/03/05 22:45:02;;;;;;;3.50;3.20;;;;;;;2.98;100.00;101014.31;10418512;28;20047;-73
2023/03/05 22:50:03;;;;;;;6.72;2.65;;;;;;;2.82;100.00;100992.69;10418868;28;20033;-73
2023/03/05 22:55:04;;;;;;;2.83;2.33;;;;;;;2.72;100.00;101001.56;10417503;28;20034;-73
2023/03/05 23:00:08;;;;;;;3.13;2.20;;;;;;;2.68;100.00;100991.28;10417369;28;20083;-74
2023/03/05 23:05:09;;;;;;;2.58;2.40;;;;;;;2.65;100.00;100987.09;10416825;28;20476;-73
2023/03/05 23:10:12;;;;;;;5.45;3.22;;;;;;;2.59;100.00;100985.00;10416847;28;20045;-73